Villa Nueva, Texas
Current Conditions -  °F | °C
As of 10:53 PM on Saturday 25 Oct 2014 (Local Time) from KBRO Reporting Station
Clear Clear  
Wind Chill: 69°   Ceiling: Unl
Heat Index: 69°   Visibility: 10mi
Dew Point: 66°   Wind: 5mph
Humidity: 90%   Direction: 110°ESE
Pressure: 30.11"   Gusts: NA
Location:  26.0002°N, 97.5729°W
Report Text: KBRO 260353Z 11004KT 10SM CLR 21/19 A3011 RMK AO2 SLP194 T02060189 $
Loading
Personal Weather Stations






























Interactive Weather Map
Tropical Storm Tracking
New forecast layout! Learn more

10-Day Weather Forecast

Advertisements
Track Severe Weather on mobile